Weather at Bronkhorstspruit Airport

Public forecast

Using degrees Celsius for public forecast. Weather courtesy of forecast.io.

Closest aviation weather report (METAR) to Bronkhorstspruit Airport

Report is more than 2 hours old.

Closest report is Waterkloof Air Force Base, 27.5 nm (50.9 km) W. Retrieved 2020/10/20 12:00 UTC (4 hours ago):

FAWK 201200Z AUTO 31010KT //// // ////// 34/06 Q1018

Closest aviation forecast (TAF) to Bronkhorstspruit Airport

Forecast is more than 12 hours old.

Closest forecast is Waterkloof Air Force Base, 27.5 nm (50.9 km) W. Retrieved 2019/01/10 07:00 UTC (2 years ago):

TAF FAWK 100800Z 1007/1018 33007KT 9999 SCT035 PROB30 TEMPO 1007/1009 -TSRA FEW035CB BECMG 1010/1012 CAVOK PROB30 TEMPO 1016/1018 VRB03KT SCT030 FEW035TCU TX30/1013Z TN25/1018Z